Time;durP1;ratioP1;P1;durP2;ratioP2;P2;SDS_P1;SDS_P2;PMS_P1;PMS_P2;Temp;Humidity;BMP_temperature;BMP_pressure;BME280_temperature;BME280_humidity;BME280_pressure;Samples;Min_cycle;Max_cycle;Signal;HPM_P1;HPM_P2
2021/06/19 00:00:47;;;;;;;5.97;5.38;;;24.80;53.90;;;;;;3586051;39;20064;-65
2021/06/19 00:03:13;;;;;;;5.95;5.22;;;24.80;54.30;;;;;;3597693;39;20068;-65
2021/06/19 00:05:38;;;;;;;5.40;4.95;;;24.70;54.10;;;;;;3595187;39;20042;-65
2021/06/19 00:08:05;;;;;;;5.80;5.10;;;24.70;54.20;;;;;;3591929;39;20056;-65
2021/06/19 00:10:30;;;;;;;5.20;4.70;;;24.70;54.30;;;;;;3589391;39;20046;-65
2021/06/19 00:12:56;;;;;;;5.88;5.28;;;24.60;54.40;;;;;;3591993;39;20036;-65
2021/06/19 00:15:23;;;;;;;5.93;5.40;;;24.60;55.20;;;;;;3592217;39;20027;-65
2021/06/19 00:17:49;;;;;;;5.85;5.20;;;24.50;55.00;;;;;;3590306;39;20040;-65
2021/06/19 00:20:18;;;;;;;9.00;5.18;;;24.50;55.20;;;;;;3590850;39;20611;-65
2021/06/19 00:22:44;;;;;;;5.88;5.28;;;24.50;55.50;;;;;;3595253;39;20671;-65
2021/06/19 00:25:12;;;;;;;6.07;5.05;;;24.40;55.60;;;;;;3598201;39;20035;-65
2021/06/19 00:27:38;;;;;;;5.38;4.68;;;24.30;56.30;;;;;;3591715;39;20440;-65
2021/06/19 00:30:05;;;;;;;8.70;5.00;;;24.20;55.90;;;;;;3594123;39;20039;-65
2021/06/19 00:32:31;;;;;;;6.75;5.18;;;24.20;56.20;;;;;;3591175;39;20036;-65
2021/06/19 00:34:57;;;;;;;7.90;5.47;;;24.20;56.40;;;;;;3590126;39;20036;-65
2021/06/19 00:37:22;;;;;;;5.55;5.00;;;24.10;56.50;;;;;;3593347;39;20076;-65
2021/06/19 00:39:48;;;;;;;6.05;5.05;;;24.10;56.80;;;;;;3595844;39;20023;-65
2021/06/19 00:42:18;;;;;;;5.97;5.25;;;24.00;57.00;;;;;;3587530;39;20124;-65
2021/06/19 00:44:44;;;;;;;5.63;5.00;;;23.90;57.20;;;;;;3584124;39;20372;-65
2021/06/19 00:47:09;;;;;;;6.43;5.82;;;23.90;57.60;;;;;;3590762;39;20044;-65
2021/06/19 00:49:36;;;;;;;6.22;5.30;;;23.90;57.70;;;;;;3589063;39;20040;-65
2021/06/19 00:52:02;;;;;;;7.82;5.97;;;23.80;57.80;;;;;;3591459;39;20055;-65
2021/06/19 00:54:28;;;;;;;6.75;5.53;;;23.80;58.10;;;;;;3594974;39;20020;-65
2021/06/19 00:56:54;;;;;;;8.63;6.72;;;23.70;58.40;;;;;;3596737;39;20028;-66
2021/06/19 00:59:20;;;;;;;7.05;6.35;;;23.70;58.60;;;;;;3595319;39;20032;-66
2021/06/19 01:01:46;;;;;;;8.80;6.65;;;23.70;58.60;;;;;;3590515;39;20039;-65
2021/06/19 01:04:12;;;;;;;8.90;6.20;;;23.70;58.70;;;;;;3588420;39;20302;-65
2021/06/19 01:06:37;;;;;;;12.30;7.90;;;23.70;59.00;;;;;;3590593;39;20121;-65
2021/06/19 01:09:06;;;;;;;7.50;6.63;;;23.70;59.10;;;;;;3584826;39;20020;-65
2021/06/19 01:11:33;;;;;;;9.02;7.20;;;23.70;59.30;;;;;;3596698;39;20024;-65
2021/06/19 01:13:59;;;;;;;7.38;6.57;;;23.60;59.40;;;;;;3596433;39;20031;-65
2021/06/19 01:16:25;;;;;;;9.05;7.03;;;23.50;59.60;;;;;;3592111;39;20032;-65
2021/06/19 01:18:50;;;;;;;8.30;7.47;;;23.40;59.90;;;;;;3589313;39;20020;-65
2021/06/19 01:21:18;;;;;;;8.52;7.25;;;23.40;60.20;;;;;;3589042;39;20128;-65
2021/06/19 01:23:44;;;;;;;9.48;7.60;;;23.40;60.50;;;;;;3587653;39;20020;-65
2021/06/19 01:26:18;;;;;;;9.50;7.95;;;23.30;60.80;;;;;;3588921;39;20058;-65
2021/06/19 01:28:46;;;;;;;9.38;7.88;;;23.20;60.90;;;;;;3594300;39;20029;-65
2021/06/19 01:31:12;;;;;;;11.80;7.90;;;23.20;61.20;;;;;;3583132;39;20035;-65
2021/06/19 01:33:39;;;;;;;9.27;7.80;;;23.20;61.20;;;;;;3579777;39;20028;-65
2021/06/19 01:36:06;;;;;;;9.05;7.40;;;23.20;61.40;;;;;;3589328;39;20029;-65
2021/06/19 01:38:32;;;;;;;10.35;7.75;;;23.20;62.10;;;;;;3582337;39;20028;-65
2021/06/19 01:40:58;;;;;;;8.98;7.85;;;23.10;62.20;;;;;;3590281;39;20789;-65
2021/06/19 01:43:24;;;;;;;9.65;8.10;;;23.10;61.70;;;;;;3590988;39;20031;-65
2021/06/19 01:45:50;;;;;;;8.65;7.72;;;23.00;61.80;;;;;;3593134;39;20031;-65
2021/06/19 01:48:16;;;;;;;8.23;7.43;;;23.00;62.10;;;;;;3594824;39;20409;-65
2021/06/19 01:50:41;;;;;;;9.30;8.32;;;22.90;62.20;;;;;;3593556;39;20488;-65
2021/06/19 01:53:07;;;;;;;11.38;8.45;;;22.90;62.50;;;;;;3594471;39;20063;-65
2021/06/19 01:55:33;;;;;;;8.82;7.93;;;22.90;62.40;;;;;;3594427;39;20028;-65
2021/06/19 01:58:00;;;;;;;8.93;7.60;;;22.90;62.60;;;;;;3589491;39;20025;-65
2021/06/19 02:00:32;;;;;;;8.82;7.93;;;22.90;62.70;;;;;;3595739;39;20039;-65
2021/06/19 02:02:58;;;;;;;8.82;7.90;;;22.90;62.80;;;;;;3598302;39;20526;-65
2021/06/19 02:05:25;;;;;;;8.77;7.82;;;22.80;62.90;;;;;;3598837;39;20042;-65
2021/06/19 02:07:53;;;;;;;10.82;7.43;;;22.80;63.10;;;;;;3592108;39;20039;-65
2021/06/19 02:10:24;;;;;;;9.10;7.15;;;22.80;63.30;;;;;;3593044;39;20068;-65
2021/06/19 02:12:50;;;;;;;8.43;7.30;;;22.70;63.30;;;;;;3599275;39;20050;-71
2021/06/19 02:15:17;;;;;;;11.00;7.60;;;22.70;63.30;;;;;;3596992;39;20028;-70
2021/06/19 02:17:43;;;;;;;8.23;7.32;;;22.70;63.40;;;;;;3594745;39;20039;-71
2021/06/19 02:20:11;;;;;;;7.93;7.13;;;22.70;63.50;;;;;;3591753;39;20369;-70
2021/06/19 02:22:37;;;;;;;8.45;7.65;;;22.60;63.50;;;;;;3595903;39;20077;-71
2021/06/19 02:25:08;;;;;;;9.55;7.57;;;22.60;63.70;;;;;;3597158;39;20032;-70
2021/06/19 02:27:34;;;;;;;8.15;7.35;;;22.50;63.90;;;;;;3592699;39;20027;-70
2021/06/19 02:30:00;;;;;;;8.27;7.53;;;22.50;64.00;;;;;;3592805;39;20837;-71
2021/06/19 02:32:26;;;;;;;8.45;7.47;;;22.50;64.00;;;;;;3595094;39;20125;-70
2021/06/19 02:34:51;;;;;;;8.77;7.47;;;22.50;64.20;;;;;;3591459;39;20040;-70
2021/06/19 02:37:18;;;;;;;9.82;8.13;;;22.40;64.30;;;;;;3592692;39;20039;-70
2021/06/19 02:39:44;;;;;;;8.88;7.25;;;22.40;64.50;;;;;;3582985;39;20706;-70
2021/06/19 02:42:10;;;;;;;9.50;7.93;;;22.40;64.70;;;;;;3585932;39;20028;-70
2021/06/19 02:44:36;;;;;;;8.77;7.80;;;22.30;64.80;;;;;;3590160;39;20079;-70
2021/06/19 02:47:03;;;;;;;8.50;7.65;;;22.30;65.10;;;;;;3595707;39;20137;-71
2021/06/19 02:49:29;;;;;;;9.07;6.68;;;22.30;65.20;;;;;;3594411;39;20028;-71
2021/06/19 02:51:55;;;;;;;10.10;8.65;;;22.30;65.30;;;;;;3590682;39;20120;-71
2021/06/19 02:54:21;;;;;;;8.85;8.05;;;22.30;65.20;;;;;;3595818;39;20051;-71
2021/06/19 02:56:47;;;;;;;9.13;7.80;;;22.30;65.40;;;;;;3592778;39;20054;-70
2021/06/19 02:59:12;;;;;;;7.93;7.10;;;22.30;65.40;;;;;;3591564;39;20046;-70
2021/06/19 03:01:38;;;;;;;12.02;7.97;;;22.30;65.40;;;;;;3593912;39;20129;-71
2021/06/19 03:04:04;;;;;;;9.05;7.70;;;22.20;65.30;;;;;;3595799;39;20321;-71
2021/06/19 03:06:29;;;;;;;9.60;7.65;;;22.20;65.60;;;;;;3597454;39;20034;-70
2021/06/19 03:08:55;;;;;;;8.77;7.82;;;22.20;65.70;;;;;;3597194;39;20566;-71
2021/06/19 03:11:22;;;;;;;8.48;7.68;;;22.20;65.70;;;;;;3595134;39;20302;-71
2021/06/19 03:13:47;;;;;;;10.57;7.97;;;22.20;65.90;;;;;;3587824;39;20035;-70
2021/06/19 03:16:13;;;;;;;8.68;7.88;;;22.20;66.00;;;;;;3592083;39;20373;-71
2021/06/19 03:18:39;;;;;;;8.70;7.80;;;22.20;66.10;;;;;;3594587;39;20045;-70
2021/06/19 03:21:05;;;;;;;9.23;8.32;;;22.20;66.20;;;;;;3591174;39;20035;-71
2021/06/19 03:23:30;;;;;;;8.40;7.57;;;22.20;66.40;;;;;;3594501;39;20023;-71
2021/06/19 03:25:56;;;;;;;10.77;8.57;;;22.10;66.40;;;;;;3589013;39;20067;-71
2021/06/19 03:28:22;;;;;;;8.68;7.78;;;22.20;66.70;;;;;;3578535;39;20027;-70
2021/06/19 03:30:48;;;;;;;9.75;8.75;;;22.10;66.60;;;;;;3598551;39;20016;-71
2021/06/19 03:33:16;;;;;;;11.15;8.32;;;22.10;66.60;;;;;;3583890;39;20060;-70
2021/06/19 03:35:42;;;;;;;10.07;7.78;;;22.10;66.60;;;;;;3598424;39;20601;-72
2021/06/19 03:38:08;;;;;;;8.93;8.02;;;22.20;66.70;;;;;;3591905;39;20039;-71
2021/06/19 03:40:35;;;;;;;8.57;7.78;;;22.10;66.70;;;;;;3592570;39;20172;-71
2021/06/19 03:43:01;;;;;;;10.25;8.13;;;22.20;66.80;;;;;;3596233;39;20056;-70
2021/06/19 03:45:30;;;;;;;8.80;7.90;;;22.20;66.80;;;;;;3588010;39;20039;-70
2021/06/19 03:47:56;;;;;;;9.68;8.68;;;22.20;67.00;;;;;;3595127;39;20042;-71
2021/06/19 03:50:24;;;;;;;10.20;8.93;;;22.20;67.20;;;;;;3595316;39;20038;-71
2021/06/19 03:52:51;;;;;;;9.70;8.70;;;22.20;67.20;;;;;;3587490;39;20036;-71
2021/06/19 03:55:17;;;;;;;9.77;8.48;;;22.20;67.30;;;;;;3595573;39;20038;-71
2021/06/19 03:57:43;;;;;;;9.55;8.63;;;22.20;67.60;;;;;;3595047;39;20055;-71
2021/06/19 04:00:12;;;;;;;9.65;8.30;;;22.20;67.80;;;;;;3598286;39;20305;-71
2021/06/19 04:02:41;;;;;;;11.18;9.00;;;22.20;67.90;;;;;;3596745;39;20189;-70
2021/06/19 04:05:08;;;;;;;9.48;8.60;;;22.20;68.10;;;;;;3593694;39;20048;-70
2021/06/19 04:07:34;;;;;;;11.00;8.73;;;22.20;68.00;;;;;;3597723;39;20079;-71
2021/06/19 04:10:00;;;;;;;9.70;8.05;;;22.20;68.00;;;;;;3596529;39;20116;-70
2021/06/19 04:12:26;;;;;;;9.55;8.07;;;22.20;67.90;;;;;;3595374;39;20040;-70
2021/06/19 04:14:52;;;;;;;9.50;8.52;;;22.20;68.40;;;;;;3597255;39;20082;-74
2021/06/19 04:17:18;;;;;;;10.30;8.57;;;22.30;68.50;;;;;;3594568;39;20433;-69
2021/06/19 04:19:45;;;;;;;9.70;8.70;;;22.30;68.40;;;;;;3593944;39;20087;-70
2021/06/19 04:22:13;;;;;;;11.57;8.50;;;22.30;68.50;;;;;;3587183;39;20043;-70
2021/06/19 04:24:39;;;;;;;12.27;9.07;;;22.30;68.50;;;;;;3588400;39;20035;-71
2021/06/19 04:27:10;;;;;;;9.00;8.10;;;22.30;68.20;;;;;;3585784;39;20038;-69
2021/06/19 04:29:38;;;;;;;10.82;8.52;;;22.30;68.20;;;;;;3597313;39;20020;-70
2021/06/19 04:32:05;;;;;;;9.77;8.68;;;22.40;68.40;;;;;;3598687;39;20083;-70
2021/06/19 04:34:30;;;;;;;12.68;8.40;;;22.40;68.10;;;;;;3594842;39;20028;-69
2021/06/19 04:36:56;;;;;;;13.00;9.27;;;22.50;68.90;;;;;;3594461;39;20046;-70
2021/06/19 04:39:22;;;;;;;11.30;8.90;;;22.60;68.70;;;;;;3589805;39;20028;-70
2021/06/19 04:41:55;;;;;;;13.25;8.93;;;22.60;68.50;;;;;;3594140;39;20083;-69
2021/06/19 04:45:01;;;;;;;10.35;8.60;;;22.60;68.50;;;;;;3592479;39;20044;-69
2021/06/19 04:47:09;;;;;;;9.68;8.68;;;22.80;68.50;;;;;;3597636;39;20194;-70
2021/06/19 04:49:34;;;;;;;9.43;8.32;;;22.80;68.60;;;;;;3595157;39;20027;-70
2021/06/19 04:52:00;;;;;;;10.07;8.98;;;22.90;68.50;;;;;;3581413;39;20031;-70
2021/06/19 04:54:26;;;;;;;9.13;8.32;;;22.90;67.90;;;;;;3597077;39;20127;-69
2021/06/19 04:56:52;;;;;;;9.85;8.88;;;23.00;67.80;;;;;;3595008;39;20035;-70
2021/06/19 04:59:18;;;;;;;11.25;9.32;;;23.10;68.20;;;;;;3594159;39;20039;-70
2021/06/19 05:01:43;;;;;;;11.77;8.32;;;23.20;67.20;;;;;;3587151;39;20020;-68
2021/06/19 05:04:09;;;;;;;9.25;8.35;;;23.20;67.00;;;;;;3593087;39;20063;-69
2021/06/19 05:06:35;;;;;;;9.60;8.43;;;23.30;67.30;;;;;;3592556;39;20028;-70
2021/06/19 05:09:04;;;;;;;19.10;8.57;;;23.40;67.80;;;;;;3595168;39;20025;-69
2021/06/19 05:11:30;;;;;;;11.85;8.77;;;23.50;66.70;;;;;;3592616;39;20503;-69
2021/06/19 05:13:56;;;;;;;10.30;8.32;;;23.70;65.10;;;;;;3587823;39;20043;-70
2021/06/19 05:16:21;;;;;;;9.77;8.38;;;23.90;66.40;;;;;;3593282;39;20736;-70
2021/06/19 05:18:47;;;;;;;11.05;8.35;;;24.00;65.80;;;;;;3596774;39;20458;-71
2021/06/19 05:21:13;;;;;;;8.73;7.93;;;24.10;64.80;;;;;;3596186;39;20052;-71
2021/06/19 05:23:39;;;;;;;8.40;7.50;;;24.30;64.60;;;;;;3593971;39;20030;-70
2021/06/19 05:26:04;;;;;;;9.60;8.45;;;24.50;64.10;;;;;;3595359;39;20025;-71
2021/06/19 05:28:30;;;;;;;8.10;7.32;;;24.60;64.50;;;;;;3595541;39;20043;-71
2021/06/19 05:30:56;;;;;;;8.00;7.20;;;24.70;63.20;;;;;;3597002;39;20031;-70
2021/06/19 05:33:23;;;;;;;8.57;7.70;;;24.80;63.10;;;;;;3598964;39;20806;-70
2021/06/19 05:35:48;;;;;;;8.75;7.18;;;24.90;61.60;;;;;;3594977;39;20721;-70
2021/06/19 05:38:15;;;;;;;8.93;7.65;;;25.00;60.20;;;;;;3597110;39;20024;-70
2021/06/19 05:40:41;;;;;;;8.57;7.78;;;25.00;59.50;;;;;;3599256;39;20034;-70
2021/06/19 05:43:06;;;;;;;8.43;7.55;;;25.10;60.20;;;;;;3595855;39;20047;-70
2021/06/19 05:45:32;;;;;;;8.43;7.53;;;25.20;59.70;;;;;;3596063;39;20027;-70
2021/06/19 05:47:58;;;;;;;8.70;7.80;;;25.30;59.80;;;;;;3590357;39;20089;-70
2021/06/19 05:50:23;;;;;;;10.80;7.43;;;25.40;60.00;;;;;;3592848;39;20039;-70
2021/06/19 05:52:49;;;;;;;8.38;7.57;;;25.50;58.70;;;;;;3596890;39;20044;-75
2021/06/19 05:55:15;;;;;;;8.45;7.60;;;25.60;58.40;;;;;;3589434;39;20028;-71
2021/06/19 05:57:41;;;;;;;8.70;7.88;;;25.70;58.60;;;;;;3593327;39;20040;-71
2021/06/19 06:00:08;;;;;;;8.52;7.63;;;25.80;58.70;;;;;;3596215;39;20835;-69
2021/06/19 06:02:40;;;;;;;9.27;7.45;;;25.90;58.90;;;;;;3598198;39;20393;-70
2021/06/19 06:05:06;;;;;;;8.43;7.63;;;26.00;57.90;;;;;;3589444;39;20051;-70
2021/06/19 06:07:32;;;;;;;8.18;7.47;;;26.10;57.30;;;;;;3595317;39;20066;-70
2021/06/19 06:09:58;;;;;;;8.80;7.55;;;26.20;57.30;;;;;;3596179;39;20706;-70
2021/06/19 06:12:24;;;;;;;10.10;8.00;;;26.20;56.80;;;;;;3596101;39;20020;-69
2021/06/19 06:14:50;;;;;;;8.13;7.32;;;26.30;56.40;;;;;;3595562;39;20032;-69
2021/06/19 06:17:16;;;;;;;8.10;7.30;;;26.50;56.60;;;;;;3589885;39;20051;-69
2021/06/19 06:19:42;;;;;;;14.02;7.78;;;26.60;56.60;;;;;;3595413;39;20036;-69
2021/06/19 06:22:07;;;;;;;8.05;7.22;;;26.70;56.70;;;;;;3595150;39;20024;-69
2021/06/19 06:24:33;;;;;;;7.97;7.20;;;26.80;56.60;;;;;;3597225;39;20324;-69
2021/06/19 06:26:59;;;;;;;8.52;7.25;;;26.90;56.40;;;;;;3590058;39;20068;-68
2021/06/19 06:29:25;;;;;;;9.32;7.57;;;27.10;56.10;;;;;;3593347;39;20023;-71
2021/06/19 06:31:52;;;;;;;10.35;8.13;;;27.30;55.50;;;;;;3596065;39;20137;-70
2021/06/19 06:34:18;;;;;;;9.38;8.48;;;27.40;54.70;;;;;;3596501;39;20024;-70
2021/06/19 06:36:44;;;;;;;8.60;7.80;;;27.40;54.80;;;;;;3595063;39;20046;-71
2021/06/19 06:39:10;;;;;;;8.48;7.47;;;27.40;54.50;;;;;;3594563;39;20032;-70
2021/06/19 06:41:36;;;;;;;8.63;7.57;;;27.50;54.40;;;;;;3593859;39;20038;-70
2021/06/19 06:44:01;;;;;;;11.77;7.63;;;27.50;54.40;;;;;;3594150;39;20801;-68
2021/06/19 06:46:27;;;;;;;8.25;7.50;;;27.60;54.50;;;;;;3592830;39;20032;-68
2021/06/19 06:48:53;;;;;;;7.85;7.03;;;27.70;54.60;;;;;;3593324;39;20035;-68
2021/06/19 06:51:18;;;;;;;10.30;8.00;;;27.80;54.40;;;;;;3588509;39;20068;-68
2021/06/19 06:53:44;;;;;;;8.80;7.65;;;27.90;55.10;;;;;;3596413;39;20126;-68
2021/06/19 06:56:10;;;;;;;9.55;7.63;;;28.10;54.60;;;;;;3592772;39;20411;-68
2021/06/19 06:58:35;;;;;;;8.63;7.72;;;28.20;54.30;;;;;;3597748;39;20321;-69
2021/06/19 07:01:01;;;;;;;8.68;7.88;;;28.30;54.40;;;;;;3595119;39;20030;-68
2021/06/19 07:03:27;;;;;;;8.45;7.55;;;28.40;54.00;;;;;;3597137;39;20046;-69
2021/06/19 07:05:53;;;;;;;8.15;7.35;;;28.50;54.70;;;;;;3598283;39;20032;-68
2021/06/19 07:08:18;;;;;;;7.93;7.22;;;28.70;53.40;;;;;;3594800;39;20028;-67
2021/06/19 07:10:44;;;;;;;9.68;7.57;;;28.80;52.70;;;;;;3593519;39;20121;-68
2021/06/19 07:13:10;;;;;;;8.38;7.57;;;28.80;53.00;;;;;;3601266;39;20028;-67
2021/06/19 07:15:36;;;;;;;9.10;7.13;;;28.90;53.10;;;;;;3600716;39;20051;-67
2021/06/19 07:18:03;;;;;;;7.80;7.00;;;29.00;53.10;;;;;;3599513;39;20055;-66
2021/06/19 07:20:29;;;;;;;9.13;6.90;;;29.10;52.70;;;;;;3597727;39;20045;-68
2021/06/19 07:22:55;;;;;;;7.65;6.88;;;29.20;51.50;;;;;;3596203;39;20501;-67
2021/06/19 07:25:20;;;;;;;7.05;6.35;;;29.30;52.10;;;;;;3595999;39;20024;-67
2021/06/19 07:27:53;;;;;;;8.02;7.03;;;29.40;51.20;;;;;;3597228;39;20038;-68
2021/06/19 07:30:20;;;;;;;7.18;6.47;;;29.60;50.90;;;;;;3594004;39;20086;-68
2021/06/19 07:32:45;;;;;;;7.45;6.80;;;29.70;51.20;;;;;;3591363;39;20052;-68
2021/06/19 07:35:11;;;;;;;7.15;6.45;;;29.80;51.40;;;;;;3598330;39;20020;-67
2021/06/19 07:37:37;;;;;;;9.75;6.70;;;29.90;50.70;;;;;;3597057;39;20030;-68
2021/06/19 07:40:05;;;;;;;7.57;6.25;;;30.00;50.70;;;;;;3581491;39;20020;-67
2021/06/19 07:42:31;;;;;;;8.52;6.40;;;30.00;50.10;;;;;;3594802;39;20051;-68
2021/06/19 07:44:57;;;;;;;7.75;6.30;;;30.10;50.20;;;;;;3592904;39;20490;-69
2021/06/19 07:47:23;;;;;;;7.38;6.68;;;30.20;49.80;;;;;;3594327;39;20043;-69
2021/06/19 07:49:48;;;;;;;6.75;6.13;;;30.20;49.60;;;;;;3581283;39;20032;-69
2021/06/19 07:52:14;;;;;;;6.70;5.90;;;30.30;49.70;;;;;;3596152;39;20040;-69
2021/06/19 07:54:40;;;;;;;7.15;6.05;;;30.40;49.60;;;;;;3593967;39;20141;-69
2021/06/19 07:57:07;;;;;;;10.02;7.30;;;30.50;49.20;;;;;;3597163;39;20518;-69
2021/06/19 07:59:36;;;;;;;9.77;7.43;;;30.60;49.30;;;;;;3594320;39;20051;-69
2021/06/19 08:02:02;;;;;;;7.82;7.13;;;30.70;50.00;;;;;;3593397;39;20064;-69
2021/06/19 08:04:28;;;;;;;12.38;7.47;;;30.70;49.70;;;;;;3586169;39;20067;-69
2021/06/19 08:06:54;;;;;;;7.80;7.07;;;30.80;50.50;;;;;;3580628;39;20044;-69
2021/06/19 08:09:20;;;;;;;8.25;7.43;;;30.90;51.00;;;;;;3595299;39;20036;-69
2021/06/19 08:11:46;;;;;;;10.13;7.72;;;30.90;50.40;;;;;;3591394;39;20035;-69
2021/06/19 08:14:13;;;;;;;9.77;7.38;;;31.00;50.10;;;;;;3591884;39;20777;-69
2021/06/19 08:16:39;;;;;;;8.40;7.50;;;31.10;50.40;;;;;;3594713;39;20030;-69
2021/06/19 08:19:04;;;;;;;9.13;7.80;;;31.00;49.90;;;;;;3592294;39;20036;-69
2021/06/19 08:21:30;;;;;;;9.85;7.05;;;31.10;49.60;;;;;;3590834;39;20032;-68
2021/06/19 08:23:56;;;;;;;7.60;6.85;;;31.10;49.20;;;;;;3593504;39;20116;-69
2021/06/19 08:26:22;;;;;;;7.57;6.43;;;31.20;48.70;;;;;;3592164;39;20043;-68
2021/06/19 08:28:48;;;;;;;7.18;6.10;;;31.30;47.60;;;;;;3589912;39;20029;-69
2021/06/19 08:31:14;;;;;;;10.50;7.10;;;31.30;46.90;;;;;;3590971;39;20073;-69
2021/06/19 08:33:39;;;;;;;10.75;7.22;;;31.40;46.50;;;;;;3586607;39;20104;-69
2021/06/19 08:36:05;;;;;;;8.10;7.30;;;31.50;46.50;;;;;;3598453;39;20682;-68
2021/06/19 08:38:31;;;;;;;7.50;6.63;;;31.60;46.30;;;;;;3597944;39;20032;-69
2021/06/19 08:41:00;;;;;;;11.98;7.43;;;31.70;46.40;;;;;;3597237;39;20110;-68
2021/06/19 08:43:25;;;;;;;8.65;7.35;;;31.70;45.60;;;;;;3596721;39;20048;-68
2021/06/19 08:45:52;;;;;;;7.72;7.03;;;31.80;45.10;;;;;;3597490;39;20027;-69
2021/06/19 08:48:20;;;;;;;7.63;6.93;;;31.80;45.10;;;;;;3596444;39;20128;-69
2021/06/19 08:50:47;;;;;;;10.73;7.00;;;31.90;45.10;;;;;;3595419;39;20036;-69
2021/06/19 08:53:13;;;;;;;9.90;6.85;;;31.90;44.70;;;;;;3584882;39;20043;-68
2021/06/19 08:55:39;;;;;;;10.45;6.88;;;32.00;44.80;;;;;;3595433;39;20029;-69
2021/06/19 08:58:05;;;;;;;7.15;6.50;;;32.10;44.70;;;;;;3596391;39;20038;-69
2021/06/19 09:00:31;;;;;;;8.07;6.88;;;32.20;43.80;;;;;;3595293;39;20035;-69
2021/06/19 09:02:57;;;;;;;6.78;6.18;;;32.20;43.30;;;;;;3594520;39;20067;-68
2021/06/19 09:05:28;;;;;;;8.30;7.07;;;32.30;43.70;;;;;;3597118;39;20043;-69
2021/06/19 09:07:56;;;;;;;11.50;7.25;;;32.50;44.50;;;;;;3592219;39;20066;-69
2021/06/19 09:10:30;;;;;;;8.30;7.50;;;32.60;44.20;;;;;;3596579;39;20032;-69
2021/06/19 09:13:00;;;;;;;8.52;7.45;;;32.80;44.20;;;;;;3595491;39;20024;-69
2021/06/19 09:15:35;;;;;;;8.30;7.35;;;32.90;44.40;;;;;;3594006;39;20032;-69
2021/06/19 09:18:09;;;;;;;10.93;7.67;;;32.90;44.10;;;;;;3595865;39;20028;-69
2021/06/19 09:20:59;;;;;;;10.82;7.72;;;33.00;44.20;;;;;;3593594;39;20268;-69
2021/06/19 09:23:35;;;;;;;8.68;7.88;;;33.10;44.00;;;;;;3587791;39;20041;-69
2021/06/19 09:26:17;;;;;;;8.90;8.00;;;33.20;43.70;;;;;;3595944;39;20032;-69
2021/06/19 09:29:14;;;;;;;8.13;7.30;;;33.20;43.30;;;;;;3598329;39;20066;-69
2021/06/19 09:31:53;;;;;;;7.40;6.70;;;33.30;41.90;;;;;;3592157;39;20072;-68
2021/06/19 09:34:25;;;;;;;7.15;6.55;;;33.30;41.10;;;;;;3597740;39;20550;-69
2021/06/19 09:37:03;;;;;;;8.68;6.82;;;33.40;41.50;;;;;;3598960;39;20619;-69
2021/06/19 09:39:31;;;;;;;11.57;6.57;;;33.40;41.60;;;;;;3595962;39;20654;-70
2021/06/19 09:42:06;;;;;;;7.25;6.65;;;33.40;40.30;;;;;;3598319;39;20870;-70
2021/06/19 09:44:41;;;;;;;7.68;6.35;;;33.50;41.00;;;;;;3595597;39;20032;-70
2021/06/19 09:47:08;;;;;;;9.10;6.32;;;33.60;41.40;;;;;;3595769;39;20028;-70
2021/06/19 09:49:36;;;;;;;9.00;6.45;;;33.70;40.60;;;;;;3597289;39;20047;-69
2021/06/19 09:52:02;;;;;;;7.72;7.03;;;33.80;39.60;;;;;;3597684;39;20036;-70
2021/06/19 09:54:28;;;;;;;7.53;6.70;;;33.80;39.00;;;;;;3588216;39;20047;-68
2021/06/19 09:56:56;;;;;;;7.22;6.40;;;33.80;39.30;;;;;;3596048;39;20024;-70
2021/06/19 09:59:31;;;;;;;6.93;6.22;;;33.90;39.90;;;;;;3591565;39;20044;-70
2021/06/19 10:01:59;;;;;;;5.88;5.38;;;34.00;40.00;;;;;;3588907;39;20095;-69
2021/06/19 10:04:29;;;;;;;6.05;5.45;;;34.10;37.30;;;;;;3594500;39;20043;-70
2021/06/19 10:06:56;;;;;;;7.15;5.13;;;34.20;37.90;;;;;;3595870;39;20032;-69
2021/06/19 10:09:23;;;;;;;6.43;4.75;;;34.20;37.50;;;;;;3586016;39;20062;-69
2021/06/19 10:11:51;;;;;;;6.18;5.57;;;34.40;36.90;;;;;;3593543;39;20308;-69
2021/06/19 10:14:19;;;;;;;5.18;4.53;;;34.40;38.10;;;;;;3596025;39;20059;-69
2021/06/19 10:16:55;;;;;;;4.95;4.38;;;34.40;36.20;;;;;;3598733;39;20035;-69
2021/06/19 10:19:23;;;;;;;7.22;4.78;;;34.40;36.80;;;;;;3596189;39;20035;-69
2021/06/19 10:21:52;;;;;;;5.43;4.90;;;34.40;36.20;;;;;;3596565;39;20035;-69
2021/06/19 10:24:20;;;;;;;5.13;4.40;;;34.50;35.70;;;;;;3599252;39;20047;-69
2021/06/19 10:26:46;;;;;;;5.47;4.78;;;34.60;35.60;;;;;;3594806;39;20031;-69
2021/06/19 10:29:13;;;;;;;5.07;4.65;;;34.70;35.80;;;;;;3594009;39;21033;-70
2021/06/19 10:31:42;;;;;;;7.10;5.13;;;34.60;36.00;;;;;;3591049;39;20069;-70
2021/06/19 10:34:26;;;;;;;5.65;4.68;;;34.70;36.50;;;;;;3597953;39;20030;-70
2021/06/19 10:36:55;;;;;;;5.20;4.70;;;34.60;36.50;;;;;;3597576;39;20032;-70
2021/06/19 10:39:50;;;;;;;5.55;5.05;;;34.60;37.00;;;;;;3588727;39;20879;-70
2021/06/19 10:42:27;;;;;;;6.53;5.80;;;34.70;36.70;;;;;;3587166;39;20046;-70
2021/06/19 10:44:54;;;;;;;5.63;5.10;;;34.80;36.60;;;;;;3597239;39;20074;-70
2021/06/19 10:47:29;;;;;;;8.05;5.38;;;34.90;36.20;;;;;;3596345;39;20481;-69
2021/06/19 10:49:55;;;;;;;5.73;5.07;;;35.00;36.30;;;;;;3596762;39;20400;-69
2021/06/19 10:52:27;;;;;;;5.70;4.78;;;35.10;36.30;;;;;;3596621;39;20410;-69
2021/06/19 10:55:11;;;;;;;5.50;5.00;;;35.40;35.80;;;;;;3595929;39;20475;-68
2021/06/19 10:57:55;;;;;;;13.60;5.18;;;35.60;36.30;;;;;;3593100;39;20678;-68
2021/06/19 11:00:26;;;;;;;5.97;5.38;;;35.60;35.80;;;;;;3584570;39;20117;-69
2021/06/19 11:02:54;;;;;;;8.05;5.63;;;35.40;36.10;;;;;;3597852;39;20028;-68
2021/06/19 11:05:40;;;;;;;8.23;5.30;;;35.20;36.50;;;;;;3591331;39;20023;-71
2021/06/19 11:08:06;;;;;;;5.13;4.72;;;35.00;36.60;;;;;;3586711;39;20041;-70
2021/06/19 11:10:47;;;;;;;4.80;4.30;;;34.90;36.50;;;;;;3590091;39;20613;-70
2021/06/19 11:13:32;;;;;;;6.60;4.78;;;34.90;36.50;;;;;;3592187;39;20129;-70
2021/06/19 11:15:59;;;;;;;5.33;4.83;;;34.80;36.80;;;;;;3593213;39;20354;-70
2021/06/19 11:18:51;;;;;;;4.30;3.90;;;34.80;37.80;;;;;;3597661;39;20079;-70
2021/06/19 11:21:26;;;;;;;5.35;4.63;;;34.90;38.40;;;;;;3593230;39;20300;-68
2021/06/19 11:24:00;;;;;;;7.00;4.15;;;34.90;38.80;;;;;;3590771;39;20801;-68
2021/06/19 11:26:47;;;;;;;4.70;4.20;;;35.00;38.30;;;;;;3591068;39;20070;-68
2021/06/19 11:29:35;;;;;;;5.25;4.07;;;35.10;38.50;;;;;;3594211;39;20067;-68
2021/06/19 11:32:34;;;;;;;5.03;4.30;;;35.20;38.90;;;;;;3596990;39;20437;-68
2021/06/19 11:35:20;;;;;;;7.28;5.22;;;35.20;39.50;;;;;;3596482;39;20127;-68
2021/06/19 11:37:59;;;;;;;6.05;5.45;;;35.20;38.60;;;;;;3598379;39;20039;-68
2021/06/19 11:40:30;;;;;;;5.68;5.18;;;35.10;39.00;;;;;;3598123;39;20031;-68
2021/06/19 11:42:56;;;;;;;7.65;5.80;;;35.10;39.20;;;;;;3601036;39;20055;-68
2021/06/19 11:45:21;;;;;;;6.18;5.25;;;35.10;39.80;;;;;;3599143;39;20043;-68
2021/06/19 11:48:03;;;;;;;6.38;5.15;;;35.20;40.00;;;;;;3582592;39;20024;-68
2021/06/19 11:50:30;;;;;;;6.03;5.43;;;35.20;40.00;;;;;;3595411;39;20072;-68
2021/06/19 11:52:56;;;;;;;7.88;5.63;;;35.30;39.80;;;;;;3592401;39;20124;-68
2021/06/19 11:55:22;;;;;;;7.45;5.60;;;35.40;39.70;;;;;;3581695;39;20081;-67
2021/06/19 11:57:57;;;;;;;6.85;6.25;;;35.60;40.90;;;;;;3591285;39;20028;-68
2021/06/19 12:00:23;;;;;;;8.85;5.72;;;35.70;39.40;;;;;;3590569;39;20531;-68
2021/06/19 12:02:53;;;;;;;7.40;5.68;;;35.80;39.40;;;;;;3580767;39;20042;-68
2021/06/19 12:05:19;;;;;;;8.63;5.53;;;35.90;39.10;;;;;;3590906;39;20020;-68
2021/06/19 12:07:46;;;;;;;5.95;5.35;;;36.00;38.00;;;;;;3588443;39;20024;-69
2021/06/19 12:10:26;;;;;;;7.90;5.28;;;35.90;38.10;;;;;;3588042;39;20401;-68
2021/06/19 12:13:07;;;;;;;6.28;5.55;;;35.90;38.40;;;;;;3593955;39;20051;-69
2021/06/19 12:15:34;;;;;;;7.18;4.93;;;35.90;38.50;;;;;;3594612;39;20444;-68
2021/06/19 12:18:03;;;;;;;9.38;4.60;;;35.90;37.90;;;;;;3591251;39;20032;-68
2021/06/19 12:20:29;;;;;;;8.30;4.28;;;35.90;36.90;;;;;;3591045;39;20024;-68
2021/06/19 12:22:55;;;;;;;8.85;4.60;;;35.90;36.20;;;;;;3594890;39;20023;-68
2021/06/19 12:25:29;;;;;;;5.30;4.88;;;35.90;35.90;;;;;;3590599;39;20113;-68
2021/06/19 12:27:54;;;;;;;5.10;4.53;;;35.80;36.40;;;;;;3590352;39;20411;-68
2021/06/19 12:30:20;;;;;;;8.48;5.22;;;35.80;36.80;;;;;;3593182;39;20028;-68
2021/06/19 12:32:46;;;;;;;5.72;5.20;;;35.70;37.70;;;;;;3597018;39;20078;-68
2021/06/19 12:35:15;;;;;;;7.00;5.30;;;35.80;37.70;;;;;;3596995;39;20034;-68
2021/06/19 12:38:01;;;;;;;6.40;5.10;;;35.80;37.40;;;;;;3593416;39;20058;-69
2021/06/19 12:40:32;;;;;;;6.25;5.60;;;35.90;37.50;;;;;;3595957;39;20034;-68
2021/06/19 12:42:58;;;;;;;6.55;5.90;;;35.70;37.40;;;;;;3588066;39;20099;-68
2021/06/19 12:45:31;;;;;;;8.68;5.25;;;35.60;37.70;;;;;;3594569;39;20175;-68
2021/06/19 12:47:56;;;;;;;7.32;5.43;;;35.60;37.90;;;;;;3596315;39;20047;-68
2021/06/19 12:50:31;;;;;;;8.77;5.95;;;35.60;38.30;;;;;;3595802;39;20067;-68